Time;durP1;ratioP1;P1;durP2;ratioP2;P2;SDS_P1;SDS_P2;PMS_P1;PMS_P2;Temp;Humidity;BMP_temperature;BMP_pressure;BME280_temperature;BME280_humidity;BME280_pressure;Samples;Min_cycle;Max_cycle;Signal;HPM_P1;HPM_P2
2022/06/12 00:01:18;;;;;;;0.45;0.22;;;15.30;99.90;;;;;;4915966;29;20052;-67
2022/06/12 00:03:43;;;;;;;0.30;0.30;;;15.40;99.90;;;;;;4913721;29;20052;-67
2022/06/12 00:06:09;;;;;;;2.75;1.55;;;15.30;99.90;;;;;;4916207;29;20107;-67
2022/06/12 00:08:38;;;;;;;0.10;0.10;;;15.30;99.90;;;;;;4915838;29;20048;-67
2022/06/12 00:11:05;;;;;;;1.52;1.42;;;15.30;99.90;;;;;;4916270;29;20515;-67
2022/06/12 00:13:39;;;;;;;3.50;0.90;;;15.20;99.90;;;;;;4907231;29;20087;-67
2022/06/12 00:16:05;;;;;;;0.05;0.05;;;15.10;99.90;;;;;;4900430;29;20084;-67
2022/06/12 00:18:31;;;;;;;0.73;0.73;;;15.20;99.90;;;;;;4896440;29;20048;-67
2022/06/12 00:21:10;;;;;;;0.35;0.35;;;15.30;99.90;;;;;;4896171;29;20093;-67
2022/06/12 00:23:44;;;;;;;0.20;0.20;;;15.30;99.90;;;;;;4896330;29;20397;-67
2022/06/12 00:26:13;;;;;;;5.85;1.25;;;15.30;99.90;;;;;;4898365;29;20055;-67
2022/06/12 00:28:39;;;;;;;0.88;0.85;;;15.40;99.90;;;;;;4897176;29;20052;-67
2022/06/12 00:31:04;;;;;;;0.05;0.05;;;15.20;99.90;;;;;;4895286;29;20172;-67
2022/06/12 00:33:32;;;;;;;0.28;0.28;;;15.20;99.90;;;;;;4896067;29;20075;-67
2022/06/12 00:35:58;;;;;;;2.47;1.92;;;15.20;99.90;;;;;;4895648;29;20036;-67
2022/06/12 00:38:24;;;;;;;0.00;0.00;;;15.10;99.90;;;;;;4897395;29;20048;-67
2022/06/12 00:40:50;;;;;;;0.20;0.20;;;15.20;99.90;;;;;;4901863;29;20044;-67
2022/06/12 00:43:15;;;;;;;0.00;0.00;;;15.20;99.90;;;;;;4895053;29;20060;-67
2022/06/12 00:45:59;;;;;;;0.40;0.40;;;15.20;99.90;;;;;;4897094;29;20524;-67
2022/06/12 00:48:43;;;;;;;0.00;0.00;;;15.20;99.90;;;;;;4896879;29;20484;-67
2022/06/12 00:51:16;;;;;;;3.53;1.65;;;15.20;99.90;;;;;;4906648;29;20056;-67
2022/06/12 00:53:51;;;;;;;0.68;0.15;;;15.30;99.90;;;;;;4914794;29;20058;-67
2022/06/12 00:56:22;;;;;;;0.00;0.00;;;15.30;99.90;;;;;;4913411;29;20048;-67
2022/06/12 00:58:53;;;;;;;0.10;0.10;;;15.20;99.90;;;;;;4899468;29;20045;-67
2022/06/12 01:01:27;;;;;;;8.82;1.08;;;15.20;99.90;;;;;;4899100;29;20051;-67
2022/06/12 01:06:38;;;;;;;0.30;0.30;;;15.20;99.90;;;;;;4895514;29;20048;-67
2022/06/12 01:09:11;;;;;;;0.20;0.20;;;15.10;99.90;;;;;;4894770;29;20044;-67
2022/06/12 01:11:40;;;;;;;0.00;0.00;;;15.10;99.90;;;;;;4902348;29;20063;-67
2022/06/12 01:14:11;;;;;;;0.00;0.00;;;15.10;99.90;;;;;;4915259;29;20040;-67
2022/06/12 01:16:45;;;;;;;1.25;0.85;;;15.10;99.90;;;;;;4912157;29;20454;-67
2022/06/12 01:19:29;;;;;;;0.10;0.10;;;15.10;99.90;;;;;;4906347;29;20075;-67
2022/06/12 01:22:13;;;;;;;0.20;0.20;;;15.00;99.90;;;;;;4908565;29;20415;-67
2022/06/12 01:25:17;;;;;;;0.10;0.10;;;14.90;99.90;;;;;;4915268;29;20111;-67
2022/06/12 01:28:21;;;;;;;0.15;0.15;;;14.90;99.90;;;;;;4900823;29;20065;-67
2022/06/12 01:31:25;;;;;;;0.65;0.65;;;14.90;99.90;;;;;;4896308;29;20508;-67
2022/06/12 01:33:57;;;;;;;;;;;14.90;99.90;;;;;;4876672;29;20053;-67
2022/06/12 01:36:33;;;;;;;0.63;0.63;;;14.90;99.90;;;;;;4891702;29;20341;-67
2022/06/12 01:39:37;;;;;;;5.15;1.08;;;14.80;99.90;;;;;;4905416;29;20052;-67
2022/06/12 01:42:03;;;;;;;2.28;0.85;;;14.80;99.90;;;;;;4880221;29;20061;-67
2022/06/12 01:44:40;;;;;;;1.92;0.50;;;14.70;99.90;;;;;;4894994;29;20057;-67
2022/06/12 01:47:17;;;;;;;0.10;0.10;;;14.60;99.90;;;;;;4895354;29;20056;-67
2022/06/12 01:49:48;;;;;;;0.40;0.40;;;14.60;99.90;;;;;;4895628;29;20378;-67
2022/06/12 01:52:22;;;;;;;0.20;0.20;;;14.70;99.90;;;;;;4895872;29;20048;-67
2022/06/12 01:55:05;;;;;;;0.38;0.38;;;14.70;99.90;;;;;;4904011;29;20052;-67
2022/06/12 01:57:58;;;;;;;0.00;0.00;;;14.70;99.90;;;;;;4913399;29;20135;-67
2022/06/12 02:00:27;;;;;;;0.10;0.10;;;14.60;99.90;;;;;;4909035;29;20052;-67
2022/06/12 02:03:03;;;;;;;0.00;0.00;;;14.60;99.90;;;;;;4895058;29;20135;-67
2022/06/12 02:05:59;;;;;;;0.10;0.10;;;14.50;99.90;;;;;;4895743;29;20139;-67
2022/06/12 02:08:32;;;;;;;0.10;0.10;;;14.60;99.90;;;;;;4902636;29;20111;-67
2022/06/12 02:13:55;;;;;;;0.20;0.20;;;14.50;99.90;;;;;;4914642;29;20051;-67
2022/06/12 02:16:43;;;;;;;0.28;0.20;;;14.40;99.90;;;;;;4913435;29;20183;-67
2022/06/12 02:19:16;;;;;;;4.50;0.52;;;14.40;99.90;;;;;;4907884;29;20386;-67
2022/06/12 02:22:13;;;;;;;0.05;0.05;;;14.40;99.90;;;;;;4893750;29;20123;-67
2022/06/12 02:24:51;;;;;;;0.10;0.10;;;14.50;99.90;;;;;;4907156;29;20052;-67
2022/06/12 02:27:31;;;;;;;0.28;0.28;;;14.40;99.90;;;;;;4901092;29;20052;-67
2022/06/12 02:30:01;;;;;;;2.08;1.08;;;14.40;99.90;;;;;;4893346;29;20056;-67
2022/06/12 02:32:38;;;;;;;0.10;0.10;;;14.50;99.90;;;;;;4894075;29;20063;-67
2022/06/12 02:35:22;;;;;;;0.00;0.00;;;14.50;99.90;;;;;;4895014;29;20484;-67
2022/06/12 02:37:54;;;;;;;0.00;0.00;;;14.50;99.90;;;;;;4893461;29;20057;-67
2022/06/12 02:40:31;;;;;;;0.28;0.28;;;14.50;99.90;;;;;;4903486;29;20044;-67
2022/06/12 02:43:00;;;;;;;0.55;0.22;;;14.50;99.90;;;;;;4894388;29;20071;-67
2022/06/12 02:45:29;;;;;;;0.00;0.00;;;14.50;99.90;;;;;;4894926;29;20488;-67
2022/06/12 02:47:55;;;;;;;0.40;0.40;;;14.50;99.90;;;;;;4893894;29;20092;-67
2022/06/12 02:50:23;;;;;;;0.00;0.00;;;14.50;99.90;;;;;;4894121;29;20048;-67
2022/06/12 02:53:20;;;;;;;0.32;0.30;;;14.40;99.90;;;;;;4895512;29;20047;-67
2022/06/12 02:56:11;;;;;;;0.28;0.28;;;14.40;99.90;;;;;;4903742;29;20060;-67
2022/06/12 02:58:54;;;;;;;1.20;1.10;;;14.40;99.90;;;;;;4913165;29;20052;-67
2022/06/12 03:01:29;;;;;;;1.38;0.68;;;14.40;99.90;;;;;;4913551;29;20484;-67
2022/06/12 03:04:08;;;;;;;0.50;0.47;;;14.40;99.90;;;;;;4893595;29;20408;-67
2022/06/12 03:06:34;;;;;;;0.10;0.10;;;14.40;99.90;;;;;;4895036;29;20049;-67
2022/06/12 03:09:02;;;;;;;0.10;0.10;;;14.30;99.90;;;;;;4894725;29;20049;-67
2022/06/12 03:11:33;;;;;;;1.10;1.05;;;14.30;99.90;;;;;;4895226;29;20053;-67
2022/06/12 03:14:00;;;;;;;0.32;0.32;;;14.30;99.90;;;;;;4894943;29;20054;-67
2022/06/12 03:16:27;;;;;;;0.63;0.63;;;14.30;99.90;;;;;;4894588;29;20397;-67
2022/06/12 03:19:15;;;;;;;5.00;0.55;;;14.40;99.90;;;;;;4894510;29;20113;-67
2022/06/12 03:21:59;;;;;;;9.23;2.72;;;14.40;99.90;;;;;;4894301;29;20044;-67
2022/06/12 03:24:47;;;;;;;0.10;0.10;;;14.30;99.90;;;;;;4894681;29;20057;-67
2022/06/12 03:27:39;;;;;;;28.83;1.00;;;14.40;99.90;;;;;;4895250;29;20773;-67
2022/06/12 03:30:11;;;;;;;0.10;0.10;;;14.40;99.90;;;;;;4913281;29;20044;-67
2022/06/12 03:32:40;;;;;;;1.75;0.80;;;14.40;99.90;;;;;;4912818;29;20124;-67
2022/06/12 03:35:33;;;;;;;0.15;0.15;;;14.40;99.90;;;;;;4913938;29;20087;-67
2022/06/12 03:38:42;;;;;;;0.13;0.13;;;14.40;99.90;;;;;;4909436;29;20451;-67
2022/06/12 03:41:30;;;;;;;0.28;0.28;;;14.30;99.90;;;;;;4908055;29;20123;-67
2022/06/12 03:44:06;;;;;;;0.08;0.08;;;14.40;99.90;;;;;;4913905;29;20056;-66
2022/06/12 03:46:50;;;;;;;0.10;0.10;;;14.30;99.90;;;;;;4911304;29;20036;-67
2022/06/12 03:49:25;;;;;;;0.47;0.47;;;14.40;99.90;;;;;;4912381;29;20048;-67
2022/06/12 03:52:12;;;;;;;2.30;0.40;;;14.40;99.90;;;;;;4912968;29;20532;-67
2022/06/12 03:54:52;;;;;;;0.30;0.30;;;14.50;99.90;;;;;;4909010;29;20488;-67
2022/06/12 03:57:52;;;;;;;1.25;0.95;;;14.50;99.90;;;;;;4913147;29;20626;-67
2022/06/12 04:00:49;;;;;;;0.17;0.17;;;14.50;99.90;;;;;;4913533;29;20120;-67
2022/06/12 04:03:29;;;;;;;0.00;0.00;;;14.50;99.90;;;;;;4912976;29;20487;-67
2022/06/12 04:06:02;;;;;;;1.85;0.65;;;14.60;99.90;;;;;;4898168;29;20045;-67
2022/06/12 04:08:33;;;;;;;0.00;0.00;;;14.60;99.90;;;;;;4897441;29;20140;-67
2022/06/12 04:11:00;;;;;;;0.00;0.00;;;14.70;99.90;;;;;;4896607;29;20045;-67
2022/06/12 04:13:26;;;;;;;0.05;0.05;;;14.70;99.90;;;;;;4897412;29;20094;-67
2022/06/12 04:16:00;;;;;;;0.00;0.00;;;14.70;99.90;;;;;;4913765;29;20205;-67
2022/06/12 04:18:29;;;;;;;2.40;1.20;;;14.80;99.90;;;;;;4916805;29;20048;-67
2022/06/12 04:20:54;;;;;;;0.10;0.10;;;14.90;99.90;;;;;;4913426;29;20048;-67
2022/06/12 04:23:59;;;;;;;0.10;0.10;;;14.90;99.90;;;;;;4896366;29;20109;-67
2022/06/12 04:26:38;;;;;;;1.85;1.75;;;15.00;99.90;;;;;;4877181;29;20068;-67
2022/06/12 04:29:17;;;;;;;0.10;0.10;;;15.00;99.90;;;;;;4895391;29;20135;-67
2022/06/12 04:31:45;;;;;;;4.03;0.35;;;15.00;99.90;;;;;;4898765;29;20079;-67
2022/06/12 04:34:22;;;;;;;0.05;0.05;;;15.00;99.90;;;;;;4900909;29;20056;-67
2022/06/12 04:36:53;;;;;;;0.10;0.10;;;15.10;99.90;;;;;;4915694;29;20093;-67
2022/06/12 04:39:22;;;;;;;0.00;0.00;;;15.00;99.90;;;;;;4914636;29;20063;-67
2022/06/12 04:41:48;;;;;;;6.32;0.85;;;15.00;99.90;;;;;;4911890;29;20052;-67
2022/06/12 04:44:14;;;;;;;0.00;0.00;;;15.00;99.90;;;;;;4915376;29;20059;-67
2022/06/12 04:46:43;;;;;;;0.10;0.10;;;15.00;99.90;;;;;;4896302;29;20053;-67
2022/06/12 04:49:13;;;;;;;0.20;0.20;;;15.10;99.90;;;;;;4895514;29;20055;-67
2022/06/12 04:51:39;;;;;;;0.38;0.38;;;15.10;99.90;;;;;;4908784;29;20076;-67
2022/06/12 04:54:05;;;;;;;2.40;0.63;;;15.10;99.90;;;;;;4914548;29;20076;-67
2022/06/12 04:56:32;;;;;;;0.00;0.00;;;15.10;99.90;;;;;;4897730;29;20040;-67
2022/06/12 04:58:57;;;;;;;0.30;0.30;;;15.20;99.90;;;;;;4897119;29;20052;-67
2022/06/12 05:01:24;;;;;;;22.67;1.77;;;15.20;99.90;;;;;;4896792;29;20507;-67
2022/06/12 05:03:50;;;;;;;0.10;0.10;;;15.20;99.90;;;;;;4897599;29;20128;-67
2022/06/12 05:06:17;;;;;;;0.05;0.05;;;15.30;99.90;;;;;;4895855;29;20054;-67
2022/06/12 05:08:44;;;;;;;0.00;0.00;;;15.40;99.90;;;;;;4896661;29;20044;-67
2022/06/12 05:11:10;;;;;;;0.10;0.10;;;15.40;99.90;;;;;;4896206;29;20079;-67
2022/06/12 05:13:36;;;;;;;0.00;0.00;;;15.50;99.90;;;;;;4897755;29;20055;-67
2022/06/12 05:16:01;;;;;;;0.10;0.10;;;15.50;99.90;;;;;;4915281;29;20396;-67
2022/06/12 05:18:28;;;;;;;0.10;0.10;;;15.50;99.90;;;;;;4914877;29;20103;-67
2022/06/12 05:20:54;;;;;;;15.00;0.55;;;15.60;99.90;;;;;;4911941;29;20052;-67
2022/06/12 05:23:20;;;;;;;0.05;0.05;;;15.60;99.90;;;;;;4915084;29;20048;-67
2022/06/12 05:25:46;;;;;;;1.60;0.52;;;15.60;99.90;;;;;;4901813;29;20596;-67
2022/06/12 05:28:14;;;;;;;0.10;0.10;;;15.70;99.90;;;;;;4895942;29;20139;-67
2022/06/12 05:30:41;;;;;;;0.10;0.10;;;15.70;99.90;;;;;;4896196;29;20045;-67
2022/06/12 05:33:06;;;;;;;0.40;0.40;;;15.80;99.90;;;;;;4897412;29;20117;-67
2022/06/12 05:35:34;;;;;;;0.10;0.10;;;15.80;99.90;;;;;;4895825;29;20048;-67
2022/06/12 05:38:00;;;;;;;0.10;0.10;;;15.90;99.90;;;;;;4896723;29;20044;-67
2022/06/12 05:40:28;;;;;;;0.10;0.10;;;16.00;99.90;;;;;;4899454;29;20049;-67
2022/06/12 05:42:54;;;;;;;0.08;0.08;;;16.10;99.90;;;;;;4896267;29;20512;-67
2022/06/12 05:45:23;;;;;;;0.20;0.20;;;16.10;99.90;;;;;;4902383;29;20040;-67
2022/06/12 05:47:52;;;;;;;0.10;0.10;;;16.20;99.90;;;;;;4914345;29;20044;-67
2022/06/12 05:50:20;;;;;;;0.00;0.00;;;16.20;99.90;;;;;;4914518;29;20111;-67
2022/06/12 05:52:45;;;;;;;0.73;0.73;;;16.30;99.90;;;;;;4914384;29;20080;-67
2022/06/12 05:55:12;;;;;;;0.47;0.38;;;16.30;99.90;;;;;;4909010;29;20059;-67
2022/06/12 05:57:38;;;;;;;0.70;0.70;;;16.30;99.90;;;;;;4914745;29;20056;-67
2022/06/12 06:00:07;;;;;;;5.82;0.80;;;16.40;99.90;;;;;;4912401;29;20051;-67
2022/06/12 06:02:34;;;;;;;0.20;0.20;;;16.40;99.90;;;;;;4895582;29;20048;-67
2022/06/12 06:05:00;;;;;;;0.10;0.10;;;16.50;99.90;;;;;;4895616;29;20072;-67
2022/06/12 06:07:26;;;;;;;17.63;0.52;;;16.50;99.90;;;;;;4893464;29;20052;-67
2022/06/12 06:09:52;;;;;;;0.63;0.60;;;16.60;99.90;;;;;;4895749;29;20057;-67
2022/06/12 06:12:18;;;;;;;0.10;0.10;;;16.60;99.90;;;;;;4894144;29;20060;-67
2022/06/12 06:14:43;;;;;;;0.10;0.10;;;16.60;99.90;;;;;;4897653;29;20044;-67
2022/06/12 06:17:09;;;;;;;0.22;0.22;;;16.70;99.90;;;;;;4895084;29;20081;-67
2022/06/12 06:19:35;;;;;;;17.88;1.05;;;16.70;99.90;;;;;;4895111;29;20115;-67
2022/06/12 06:22:00;;;;;;;1.33;1.25;;;16.70;99.90;;;;;;4892793;29;20041;-67
2022/06/12 06:24:26;;;;;;;1.27;1.17;;;16.80;99.90;;;;;;4910550;29;20088;-67
2022/06/12 06:26:52;;;;;;;0.00;0.00;;;16.80;99.90;;;;;;4914621;29;20054;-67
2022/06/12 06:29:17;;;;;;;0.10;0.10;;;16.90;99.90;;;;;;4907775;29;20415;-67
2022/06/12 06:31:43;;;;;;;0.75;0.75;;;16.90;99.90;;;;;;4913827;29;20052;-67
2022/06/12 06:34:09;;;;;;;2.10;1.98;;;17.00;99.90;;;;;;4912778;29;20088;-67
2022/06/12 06:36:35;;;;;;;0.00;0.00;;;17.10;99.90;;;;;;4900436;29;20519;-67
2022/06/12 06:39:01;;;;;;;0.20;0.20;;;17.10;99.90;;;;;;4898882;29;20048;-67
2022/06/12 06:41:27;;;;;;;3.72;0.93;;;17.20;99.90;;;;;;4914143;29;20083;-67
2022/06/12 06:46:38;;;;;;;0.20;0.20;;;17.30;99.90;;;;;;4894828;29;20552;-67
2022/06/12 06:49:04;;;;;;;0.00;0.00;;;17.40;99.90;;;;;;4894107;29;20413;-67
2022/06/12 06:51:30;;;;;;;7.43;2.85;;;17.40;99.90;;;;;;4913218;29;20044;-67
2022/06/12 06:53:56;;;;;;;0.52;0.43;;;17.50;99.90;;;;;;4913206;29;20067;-67
2022/06/12 06:56:23;;;;;;;3.28;2.67;;;17.60;99.90;;;;;;4908406;29;20056;-67
2022/06/12 06:58:48;;;;;;;1.25;0.80;;;17.60;99.90;;;;;;4914024;29;20052;-67
2022/06/12 07:01:14;;;;;;;0.00;0.00;;;17.70;99.90;;;;;;4912223;29;20753;-67
2022/06/12 07:03:40;;;;;;;0.63;0.50;;;17.70;99.90;;;;;;4913511;29;20484;-67
2022/06/12 07:06:05;;;;;;;0.20;0.20;;;17.70;99.90;;;;;;4913941;29;20051;-67
2022/06/12 07:08:31;;;;;;;0.05;0.05;;;17.70;99.90;;;;;;4902296;29;20370;-67
2022/06/12 07:10:57;;;;;;;0.13;0.13;;;17.80;99.90;;;;;;4892197;29;20055;-67
2022/06/12 07:13:24;;;;;;;0.03;0.03;;;17.80;99.90;;;;;;4912347;29;20119;-67
2022/06/12 07:15:49;;;;;;;0.00;0.00;;;17.80;99.90;;;;;;4912880;29;20048;-67
2022/06/12 07:18:16;;;;;;;0.63;0.63;;;17.80;99.90;;;;;;4911977;29;20100;-67
2022/06/12 07:20:47;;;;;;;0.00;0.00;;;17.70;99.90;;;;;;4913931;29;20052;-68
2022/06/12 07:23:15;;;;;;;0.10;0.10;;;17.80;99.90;;;;;;4895652;29;20509;-67
2022/06/12 07:25:44;;;;;;;5.13;0.32;;;17.80;99.90;;;;;;4894409;29;20143;-67
2022/06/12 07:28:11;;;;;;;0.10;0.10;;;17.70;99.90;;;;;;4894754;29;20041;-67
2022/06/12 07:30:38;;;;;;;0.00;0.00;;;17.70;99.90;;;;;;4893314;29;20536;-67
2022/06/12 07:33:05;;;;;;;0.00;0.00;;;17.80;99.90;;;;;;4892330;29;20623;-67
2022/06/12 07:35:32;;;;;;;0.00;0.00;;;17.80;99.90;;;;;;4898867;29;20059;-67
2022/06/12 07:37:59;;;;;;;0.00;0.00;;;17.90;99.90;;;;;;4897983;29;20140;-67
2022/06/12 07:40:28;;;;;;;0.10;0.10;;;18.00;99.90;;;;;;4912660;29;20038;-67
2022/06/12 07:42:54;;;;;;;0.00;0.00;;;18.00;99.90;;;;;;4914212;29;20052;-67
2022/06/12 07:45:20;;;;;;;0.28;0.28;;;18.10;99.90;;;;;;4910397;29;20099;-67
2022/06/12 07:47:46;;;;;;;0.10;0.10;;;18.10;99.90;;;;;;4912954;29;20091;-67
2022/06/12 07:50:12;;;;;;;2.00;0.55;;;18.10;99.90;;;;;;4898033;29;20143;-67
2022/06/12 07:52:39;;;;;;;0.13;0.13;;;18.20;99.90;;;;;;4898369;29;20453;-67
2022/06/12 07:55:06;;;;;;;1.25;0.45;;;18.30;99.90;;;;;;4897993;29;20052;-67
2022/06/12 07:57:32;;;;;;;0.05;0.05;;;18.30;99.90;;;;;;4898088;29;20090;-67
2022/06/12 07:59:58;;;;;;;2.75;0.90;;;18.30;99.90;;;;;;4897187;29;20041;-67
2022/06/12 08:02:23;;;;;;;0.03;0.03;;;18.30;99.90;;;;;;4910532;29;20104;-67
2022/06/12 08:04:49;;;;;;;0.00;0.00;;;18.20;99.90;;;;;;4916974;29;20078;-67
2022/06/12 08:07:15;;;;;;;0.00;0.00;;;18.30;99.90;;;;;;4912357;29;20041;-67
2022/06/12 08:09:40;;;;;;;1.83;0.73;;;18.30;99.90;;;;;;4915659;29;20044;-67
2022/06/12 08:12:07;;;;;;;0.00;0.00;;;18.40;99.90;;;;;;4916390;29;20062;-67
2022/06/12 08:14:33;;;;;;;0.15;0.15;;;18.50;99.90;;;;;;4902358;29;20207;-67
2022/06/12 08:16:58;;;;;;;0.10;0.10;;;18.40;99.90;;;;;;4896191;29;20167;-68
2022/06/12 08:22:09;;;;;;;0.10;0.10;;;18.50;99.90;;;;;;4896595;29;20052;-67
2022/06/12 08:24:36;;;;;;;0.00;0.00;;;18.60;99.90;;;;;;4899549;29;20067;-67
2022/06/12 08:27:02;;;;;;;0.00;0.00;;;18.50;99.90;;;;;;4896516;29;20049;-67
2022/06/12 08:29:28;;;;;;;8.35;0.65;;;18.60;99.90;;;;;;4911931;29;20048;-67
2022/06/12 08:31:58;;;;;;;0.43;0.43;;;18.80;99.90;;;;;;4913965;29;20504;-67
2022/06/12 08:34:44;;;;;;;0.10;0.10;;;18.90;99.90;;;;;;4914463;29;20056;-67
2022/06/12 08:37:18;;;;;;;0.08;0.08;;;18.90;99.90;;;;;;4911434;29;20389;-67
2022/06/12 08:39:44;;;;;;;0.10;0.10;;;18.90;99.90;;;;;;4915996;29;20059;-67
2022/06/12 08:42:11;;;;;;;0.10;0.10;;;18.90;99.90;;;;;;4915484;29;20040;-67
2022/06/12 08:44:45;;;;;;;0.00;0.00;;;18.90;99.90;;;;;;4913420;29;20048;-67
2022/06/12 08:47:17;;;;;;;0.10;0.10;;;19.00;99.90;;;;;;4914403;29;20056;-67
2022/06/12 08:49:50;;;;;;;0.25;0.25;;;19.00;99.90;;;;;;4908866;29;20052;-68
2022/06/12 08:52:27;;;;;;;0.25;0.25;;;19.00;99.90;;;;;;4896789;29;20047;-67
2022/06/12 08:55:25;;;;;;;0.10;0.10;;;19.00;99.90;;;;;;4896309;29;20374;-67
2022/06/12 08:58:04;;;;;;;0.08;0.08;;;19.10;99.90;;;;;;4896649;29;20052;-68
2022/06/12 09:00:35;;;;;;;0.00;0.00;;;19.10;99.90;;;;;;4912590;29;20044;-67
2022/06/12 09:03:02;;;;;;;0.17;0.17;;;19.10;99.90;;;;;;4914784;29;20501;-67
2022/06/12 09:06:19;;;;;;;0.20;0.20;;;19.20;99.90;;;;;;4898874;29;20108;-67
2022/06/12 09:08:50;;;;;;;0.00;0.00;;;19.20;99.90;;;;;;4895695;29;20065;-67
2022/06/12 09:11:34;;;;;;;0.10;0.10;;;19.20;99.90;;;;;;4901520;29;20056;-68
2022/06/12 09:14:19;;;;;;;1.45;1.13;;;19.20;99.90;;;;;;4912932;29;20051;-67
2022/06/12 09:17:06;;;;;;;16.85;1.10;;;19.30;99.90;;;;;;4913307;29;20052;-67
2022/06/12 09:19:55;;;;;;;0.00;0.00;;;19.30;99.90;;;;;;4912064;29;20080;-67
2022/06/12 09:22:59;;;;;;;0.00;0.00;;;19.40;99.90;;;;;;4913823;29;20139;-68
2022/06/12 09:25:36;;;;;;;0.00;0.00;;;19.40;99.90;;;;;;4911183;29;20405;-67
2022/06/12 09:28:23;;;;;;;0.30;0.30;;;19.50;99.90;;;;;;4911216;29;20075;-68
2022/06/12 09:30:58;;;;;;;0.08;0.08;;;19.40;99.90;;;;;;4912542;29;20048;-68
2022/06/12 09:33:41;;;;;;;0.00;0.00;;;19.40;99.90;;;;;;4896213;29;20048;-67
2022/06/12 09:36:25;;;;;;;0.30;0.30;;;19.50;99.90;;;;;;4907033;29;20090;-67
2022/06/12 09:39:35;;;;;;;0.00;0.00;;;19.40;99.90;;;;;;4911273;29;20099;-67
2022/06/12 09:42:10;;;;;;;5.03;1.27;;;19.50;99.90;;;;;;4901813;29;20462;-67
2022/06/12 09:44:35;;;;;;;0.40;0.30;;;19.70;99.90;;;;;;4913470;29;20196;-67
2022/06/12 09:47:09;;;;;;;13.95;0.32;;;20.10;99.90;;;;;;4914097;29;20127;-67
2022/06/12 09:49:46;;;;;;;0.10;0.10;;;20.40;99.90;;;;;;4901781;29;20049;-67
2022/06/12 09:52:33;;;;;;;0.00;0.00;;;20.70;99.90;;;;;;4895228;29;20235;-67
2022/06/12 09:55:07;;;;;;;0.08;0.08;;;20.90;99.90;;;;;;4897062;29;20040;-67
2022/06/12 09:57:43;;;;;;;0.10;0.10;;;21.10;99.90;;;;;;4895389;29;20393;-67
2022/06/12 10:00:16;;;;;;;0.00;0.00;;;21.30;99.90;;;;;;4892877;29;20589;-67
2022/06/12 10:03:06;;;;;;;9.15;0.43;;;21.30;99.90;;;;;;4894321;29;20055;-67
2022/06/12 10:06:00;;;;;;;13.63;1.35;;;21.60;99.90;;;;;;4903272;29;20056;-68
2022/06/12 10:08:31;;;;;;;0.30;0.30;;;21.60;99.90;;;;;;4909240;29;20064;-67
2022/06/12 10:11:16;;;;;;;0.00;0.00;;;21.80;99.90;;;;;;4912363;29;20059;-67
2022/06/12 10:13:47;;;;;;;0.55;0.55;;;21.40;99.90;;;;;;4913634;29;20041;-67
2022/06/12 10:16:21;;;;;;;0.10;0.10;;;21.40;99.90;;;;;;4914498;29;20055;-67
2022/06/12 10:19:02;;;;;;;1.00;0.45;;;21.20;99.90;;;;;;4914827;29;20095;-67
2022/06/12 10:21:32;;;;;;;0.22;0.22;;;21.10;99.90;;;;;;4908107;29;20056;-67
2022/06/12 10:24:01;;;;;;;0.28;0.28;;;21.00;99.90;;;;;;4913906;29;20048;-67
2022/06/12 10:26:29;;;;;;;0.00;0.00;;;21.20;99.90;;;;;;4914367;29;20066;-67
2022/06/12 10:29:09;;;;;;;0.30;0.30;;;21.20;99.90;;;;;;4907523;29;20052;-67
2022/06/12 10:31:49;;;;;;;0.28;0.28;;;21.30;99.90;;;;;;4893693;29;20497;-67
2022/06/12 10:34:28;;;;;;;0.30;0.30;;;21.20;99.90;;;;;;4894084;29;20062;-67
2022/06/12 10:36:55;;;;;;;0.10;0.10;;;21.10;99.90;;;;;;4895438;29;20116;-67
2022/06/12 10:39:24;;;;;;;0.47;0.38;;;21.10;99.90;;;;;;4899864;29;20392;-67
2022/06/12 10:41:52;;;;;;;0.55;0.55;;;21.20;99.90;;;;;;4913822;29;20087;-67
2022/06/12 10:44:44;;;;;;;0.43;0.32;;;21.40;99.90;;;;;;4895234;29;20539;-67
2022/06/12 10:47:17;;;;;;;0.22;0.22;;;21.30;99.90;;;;;;4893499;29;20063;-67
2022/06/12 10:49:44;;;;;;;0.40;0.38;;;21.40;99.90;;;;;;4907050;29;20052;-68
2022/06/12 10:52:22;;;;;;;0.32;0.32;;;21.40;99.90;;;;;;4895158;29;20370;-68
2022/06/12 10:54:50;;;;;;;0.20;0.20;;;21.50;99.90;;;;;;4899775;29;20114;-67
2022/06/12 10:57:45;;;;;;;0.65;0.38;;;21.50;99.90;;;;;;4913131;29;20044;-67
2022/06/12 11:00:15;;;;;;;0.20;0.20;;;21.60;99.90;;;;;;4913739;29;20052;-67
2022/06/12 11:02:53;;;;;;;0.00;0.00;;;21.70;99.90;;;;;;4912314;29;20048;-67
2022/06/12 11:05:46;;;;;;;0.28;0.28;;;21.90;99.90;;;;;;4895387;29;20139;-67
2022/06/12 11:08:37;;;;;;;0.00;0.00;;;21.80;99.90;;;;;;4905818;29;20124;-67
2022/06/12 11:11:30;;;;;;;1.67;0.47;;;21.90;99.90;;;;;;4915248;29;20055;-67
2022/06/12 11:14:08;;;;;;;0.32;0.32;;;21.90;99.90;;;;;;4916332;29;20146;-67
2022/06/12 11:16:55;;;;;;;2.25;1.90;;;22.20;99.90;;;;;;4916478;29;20135;-68
2022/06/12 11:19:46;;;;;;;0.00;0.00;;;22.40;99.90;;;;;;4898137;29;20048;-67
2022/06/12 11:22:49;;;;;;;0.63;0.63;;;22.50;99.90;;;;;;4898325;29;20044;-68
2022/06/12 11:25:32;;;;;;;0.75;0.75;;;22.20;99.90;;;;;;4896095;29;20063;-67
2022/06/12 11:28:29;;;;;;;0.00;0.00;;;22.40;99.90;;;;;;4896013;29;20052;-68
2022/06/12 11:31:34;;;;;;;1.13;0.75;;;22.50;99.90;;;;;;4896523;29;20484;-68
2022/06/12 11:34:08;;;;;;;0.00;0.00;;;22.30;99.90;;;;;;4894378;29;20109;-68
2022/06/12 11:36:50;;;;;;;0.38;0.38;;;21.90;99.90;;;;;;4899546;29;20069;-68
2022/06/12 11:39:41;;;;;;;0.00;0.00;;;21.90;99.90;;;;;;4906678;29;20047;-67
2022/06/12 11:42:31;;;;;;;1.85;0.85;;;22.00;99.90;;;;;;4915900;29;20059;-67
2022/06/12 11:45:27;;;;;;;0.30;0.30;;;22.20;99.90;;;;;;4897689;29;20040;-67
2022/06/12 11:48:02;;;;;;;2.40;1.27;;;22.30;99.90;;;;;;4898430;29;20493;-67
2022/06/12 11:50:41;;;;;;;0.55;0.38;;;22.40;99.90;;;;;;4896762;29;20084;-68
2022/06/12 11:53:19;;;;;;;0.00;0.00;;;22.60;99.90;;;;;;4897877;29;20067;-68
2022/06/12 11:55:52;;;;;;;0.40;0.35;;;22.40;99.90;;;;;;4896855;29;20139;-67
2022/06/12 11:58:42;;;;;;;0.08;0.08;;;22.70;99.90;;;;;;4896425;29;20827;-67
2022/06/12 12:01:21;;;;;;;0.00;0.00;;;22.80;99.90;;;;;;4898755;29;20543;-67
2022/06/12 12:04:12;;;;;;;0.40;0.40;;;23.00;99.90;;;;;;4897728;29;20084;-68
2022/06/12 12:06:56;;;;;;;1.48;1.25;;;22.90;99.90;;;;;;4897250;29;20532;-68
2022/06/12 12:09:46;;;;;;;0.20;0.20;;;22.90;99.90;;;;;;4894622;29;20048;-68
2022/06/12 12:12:19;;;;;;;0.10;0.10;;;23.10;99.90;;;;;;4897527;29;20441;-68
2022/06/12 12:14:47;;;;;;;0.80;0.30;;;23.10;99.90;;;;;;4901089;29;20056;-68
2022/06/12 12:17:19;;;;;;;0.20;0.20;;;23.10;99.90;;;;;;4897525;29;20044;-68
2022/06/12 12:19:48;;;;;;;0.00;0.00;;;23.30;99.90;;;;;;4896618;29;20056;-67
2022/06/12 12:22:38;;;;;;;2.50;1.88;;;23.30;99.90;;;;;;4913684;29;20052;-68
2022/06/12 12:25:36;;;;;;;0.10;0.10;;;23.30;99.90;;;;;;4904014;29;20060;-67
2022/06/12 12:28:08;;;;;;;0.20;0.20;;;23.50;99.90;;;;;;4896831;29;20044;-67
2022/06/12 12:30:39;;;;;;;0.00;0.00;;;23.40;99.90;;;;;;4897204;29;20061;-67
2022/06/12 12:33:14;;;;;;;0.55;0.52;;;23.50;99.90;;;;;;4896450;29;20453;-67
2022/06/12 12:41:11;;;;;;;0.00;0.00;;;23.10;99.90;;;;;;4912030;29;20404;-68
2022/06/12 12:43:55;;;;;;;0.20;0.20;;;23.40;99.90;;;;;;4914983;29;20056;-68
2022/06/12 12:46:24;;;;;;;0.10;0.10;;;23.90;99.90;;;;;;4915763;29;20036;-67
2022/06/12 12:48:55;;;;;;;0.00;0.00;;;24.00;99.90;;;;;;4899940;29;20116;-68
2022/06/12 12:51:35;;;;;;;0.00;0.00;;;23.20;99.90;;;;;;4896624;29;20091;-67
2022/06/12 12:54:09;;;;;;;0.00;0.00;;;23.20;99.90;;;;;;4906629;29;20040;-68
2022/06/12 12:56:36;;;;;;;0.00;0.00;;;23.70;99.90;;;;;;4914789;29;20048;-67
2022/06/12 12:59:05;;;;;;;0.28;0.28;;;23.80;99.90;;;;;;4915841;29;20412;-68
2022/06/12 13:01:46;;;;;;;2.92;0.52;;;23.80;99.90;;;;;;4909366;29;20564;-68
2022/06/12 13:04:19;;;;;;;0.00;0.00;;;23.90;99.90;;;;;;4915420;29;20048;-67
2022/06/12 13:07:02;;;;;;;0.80;0.77;;;23.70;99.90;;;;;;4916029;29;20068;-68
2022/06/12 13:09:53;;;;;;;0.45;0.28;;;23.20;99.90;;;;;;4910446;29;20052;-67
2022/06/12 13:12:27;;;;;;;0.32;0.32;;;22.70;99.90;;;;;;4915018;29;20131;-67
2022/06/12 13:15:11;;;;;;;1.55;0.35;;;23.10;99.90;;;;;;4915974;29;20048;-67
2022/06/12 13:18:07;;;;;;;0.00;0.00;;;22.70;99.90;;;;;;4911427;29;20206;-68
2022/06/12 13:21:17;;;;;;;0.30;0.20;;;22.50;99.90;;;;;;4915008;29;20147;-67
2022/06/12 13:24:20;;;;;;;7.43;1.08;;;22.50;99.90;;;;;;4910344;29;20044;-67
2022/06/12 13:26:45;;;;;;;0.15;0.15;;;22.50;99.90;;;;;;4914023;29;20047;-68
2022/06/12 13:29:21;;;;;;;0.52;0.52;;;22.60;99.90;;;;;;4915177;29;20060;-68
2022/06/12 13:31:53;;;;;;;0.60;0.60;;;22.30;99.90;;;;;;4907527;29;20064;-67
2022/06/12 13:34:19;;;;;;;0.60;0.55;;;22.60;99.90;;;;;;4896061;29;20081;-67
2022/06/12 13:36:45;;;;;;;0.00;0.00;;;22.70;99.90;;;;;;4897449;29;20068;-67
2022/06/12 13:39:42;;;;;;;0.38;0.38;;;22.60;99.90;;;;;;4900432;29;20197;-68
2022/06/12 13:42:11;;;;;;;2.28;0.80;;;22.90;99.90;;;;;;4914566;29;20067;-67
2022/06/12 13:44:40;;;;;;;0.13;0.13;;;23.30;99.90;;;;;;4914412;29;20416;-68